createdAt,value
2023-05-30T00:01:25.554Z,34.93
2023-05-30T00:03:53.333Z,34.50
2023-05-30T00:06:20.517Z,34.81
2023-05-30T00:08:47.676Z,34.76
2023-05-30T00:11:14.890Z,34.48
2023-05-30T00:13:45.668Z,35.13
2023-05-30T00:16:13.364Z,35.06
2023-05-30T00:18:41.502Z,35.21
2023-05-30T00:21:11.275Z,35.18
2023-05-30T00:23:40.471Z,35.12
2023-05-30T00:26:10.892Z,35.52
2023-05-30T00:28:38.788Z,35.06
2023-05-30T00:31:06.772Z,35.21
2023-05-30T00:33:34.301Z,35.03
2023-05-30T00:36:01.695Z,35.70
2023-05-30T00:38:28.954Z,35.14
2023-05-30T00:40:56.302Z,35.52
2023-05-30T00:43:23.538Z,35.35
2023-05-30T00:45:54.654Z,35.20
2023-05-30T00:48:23.131Z,35.10
2023-05-30T00:50:51.891Z,35.38
2023-05-30T00:53:20.681Z,35.27
2023-05-30T00:55:47.933Z,35.46
2023-05-30T00:58:15.776Z,35.56
2023-05-30T01:00:42.908Z,35.42
2023-05-30T01:03:10.580Z,35.61
2023-05-30T01:05:38.182Z,35.56
2023-05-30T01:08:06.148Z,35.73
2023-05-30T01:10:33.441Z,35.81
2023-05-30T01:13:29.229Z,35.92
2023-05-30T01:16:10.347Z,35.90
2023-05-30T01:19:05.032Z,35.86
2023-05-30T01:21:34.868Z,35.78
2023-05-30T01:24:21.702Z,36.43
2023-05-30T01:27:05.480Z,36.50
2023-05-30T01:29:34.954Z,36.28
2023-05-30T01:32:03.434Z,35.97
2023-05-30T01:34:31.126Z,36.44
2023-05-30T01:36:58.194Z,36.77
2023-05-30T01:39:25.183Z,36.42
2023-05-30T01:42:14.441Z,36.82
2023-05-30T01:45:08.557Z,36.27
2023-05-30T01:48:11.613Z,36.59
2023-05-30T01:50:46.685Z,36.63
2023-05-30T01:53:25.258Z,36.41
2023-05-30T01:55:56.799Z,36.28
2023-05-30T01:58:24.990Z,36.86
2023-05-30T02:00:54.451Z,36.84
2023-05-30T02:03:25.000Z,36.60
2023-05-30T02:05:52.357Z,36.92
2023-05-30T02:08:19.457Z,36.86
2023-05-30T02:10:47.574Z,36.90
2023-05-30T02:13:14.806Z,36.71
2023-05-30T02:15:41.791Z,36.60
2023-05-30T02:18:09.553Z,36.64
2023-05-30T02:20:37.342Z,36.72
2023-05-30T02:23:04.481Z,36.54
2023-05-30T02:25:34.092Z,36.60
2023-05-30T02:28:01.479Z,36.82
2023-05-30T02:30:28.525Z,37.19
2023-05-30T02:32:55.896Z,37.27
2023-05-30T02:35:22.850Z,37.11
2023-05-30T02:37:49.945Z,37.35
2023-05-30T02:40:17.351Z,37.20
2023-05-30T02:42:44.292Z,37.30
2023-05-30T02:45:11.674Z,37.46
2023-05-30T02:47:42.366Z,37.13
2023-05-30T02:50:09.932Z,37.43
2023-05-30T02:52:37.352Z,37.60
2023-05-30T02:55:05.924Z,37.03
2023-05-30T02:57:54.206Z,37.10
2023-05-30T03:00:47.105Z,37.65
2023-05-30T03:03:20.470Z,37.21
2023-05-30T03:05:50.543Z,37.32
2023-05-30T03:08:46.209Z,37.26
2023-05-30T03:11:13.252Z,37.44
2023-05-30T03:13:42.424Z,38.01
2023-05-30T03:16:09.794Z,37.41
2023-05-30T03:18:37.429Z,37.57
2023-05-30T03:21:04.622Z,37.64
2023-05-30T03:23:31.604Z,38.08
2023-05-30T03:25:58.579Z,38.03
2023-05-30T03:28:25.892Z,38.03
2023-05-30T03:31:09.775Z,37.77
2023-05-30T03:33:37.155Z,37.69
2023-05-30T03:36:04.475Z,37.80
2023-05-30T03:38:31.578Z,38.17
2023-05-30T03:40:59.064Z,38.25
2023-05-30T03:43:26.269Z,38.30
2023-05-30T03:45:53.409Z,38.23
2023-05-30T03:48:20.436Z,38.34
2023-05-30T03:50:47.377Z,38.19
2023-05-30T03:53:14.732Z,38.12
2023-05-30T03:55:41.885Z,37.92
2023-05-30T03:58:09.035Z,37.92
2023-05-30T04:00:36.059Z,37.94
2023-05-30T04:03:03.709Z,38.22
2023-05-30T04:05:30.972Z,38.12
2023-05-30T04:07:58.046Z,38.88
2023-05-30T04:10:25.169Z,38.57
2023-05-30T04:12:52.666Z,38.54
2023-05-30T04:15:19.813Z,38.64
2023-05-30T04:17:46.975Z,38.46
2023-05-30T04:20:14.237Z,38.80
2023-05-30T04:22:43.469Z,38.83
2023-05-30T04:25:10.714Z,39.29
2023-05-30T04:27:40.525Z,38.80
2023-05-30T04:30:17.744Z,39.03
2023-05-30T04:32:46.455Z,39.30
2023-05-30T04:35:16.820Z,38.84
2023-05-30T04:37:45.834Z,39.28
2023-05-30T04:40:14.488Z,38.88
2023-05-30T04:42:43.081Z,39.30
2023-05-30T04:45:17.798Z,38.95
2023-05-30T04:47:46.677Z,39.49
2023-05-30T04:50:17.598Z,39.64
2023-05-30T04:52:44.639Z,39.20
2023-05-30T04:55:12.195Z,39.37
2023-05-30T04:57:39.800Z,39.76
2023-05-30T05:00:13.930Z,39.72
2023-05-30T05:02:46.009Z,39.27
2023-05-30T05:05:13.312Z,39.87
2023-05-30T05:07:42.222Z,39.21
2023-05-30T05:10:11.322Z,39.95
2023-05-30T05:12:38.782Z,39.95
2023-05-30T05:15:06.574Z,39.89
2023-05-30T05:17:33.833Z,40.12
2023-05-30T05:20:03.942Z,40.21
2023-05-30T05:22:36.375Z,39.60
2023-05-30T05:25:05.853Z,39.85
2023-05-30T05:27:34.898Z,40.09
2023-05-30T05:30:01.998Z,40.16
2023-05-30T05:32:29.164Z,40.03
2023-05-30T05:34:56.164Z,40.11
2023-05-30T05:37:23.286Z,40.11
2023-05-30T05:39:50.485Z,40.47
2023-05-30T05:42:17.435Z,40.42
2023-05-30T05:44:44.960Z,40.87
2023-05-30T05:47:12.182Z,40.52
2023-05-30T05:49:39.140Z,40.66
2023-05-30T05:52:06.647Z,40.53
2023-05-30T05:54:33.730Z,40.68
2023-05-30T05:57:00.752Z,40.83
2023-05-30T05:59:28.134Z,41.09
2023-05-30T06:01:55.136Z,40.80
2023-05-30T06:04:22.287Z,41.15
2023-05-30T06:06:49.372Z,41.15
2023-05-30T06:09:16.924Z,40.95
2023-05-30T06:11:44.257Z,41.20
2023-05-30T06:14:11.226Z,41.10
2023-05-30T06:16:38.482Z,41.05
2023-05-30T06:19:06.196Z,41.03
2023-05-30T06:21:33.510Z,41.22
2023-05-30T06:24:00.777Z,41.25
2023-05-30T06:26:27.980Z,41.38
2023-05-30T06:28:55.120Z,40.94
2023-05-30T06:31:22.303Z,41.42
2023-05-30T06:33:49.477Z,41.30
2023-05-30T06:36:16.670Z,41.23
2023-05-30T06:38:43.633Z,41.10
2023-05-30T06:41:10.934Z,41.59
2023-05-30T06:43:38.013Z,41.66
2023-05-30T06:46:07.176Z,41.34
2023-05-30T06:48:34.341Z,41.82
2023-05-30T06:51:01.754Z,41.30
2023-05-30T06:53:28.948Z,41.32
2023-05-30T06:55:56.249Z,41.77
2023-05-30T06:58:23.196Z,41.43
2023-05-30T07:00:50.170Z,41.42
2023-05-30T07:03:17.945Z,41.91
2023-05-30T07:05:46.749Z,41.54
2023-05-30T07:08:15.996Z,41.64
2023-05-30T07:10:43.702Z,41.96
2023-05-30T07:13:10.676Z,41.63
2023-05-30T07:15:37.710Z,41.61
2023-05-30T07:18:05.228Z,41.68
2023-05-30T07:20:32.416Z,41.47
2023-05-30T07:22:59.663Z,41.34
2023-05-30T07:25:26.818Z,41.64
2023-05-30T07:27:53.837Z,41.91
2023-05-30T07:30:24.386Z,41.89
2023-05-30T07:32:52.454Z,41.54
2023-05-30T07:35:19.677Z,41.51
2023-05-30T07:37:46.672Z,42.11
2023-05-30T07:40:18.255Z,41.53
2023-05-30T07:42:48.438Z,41.42
2023-05-30T07:45:16.208Z,41.82
2023-05-30T07:47:43.417Z,41.61
2023-05-30T07:50:11.314Z,42.06
2023-05-30T07:52:38.835Z,41.48
2023-05-30T07:55:06.157Z,41.69
2023-05-30T07:57:33.224Z,42.03
2023-05-30T08:00:00.891Z,41.83
2023-05-30T08:02:28.113Z,41.76
2023-05-30T08:04:56.151Z,41.61
2023-05-30T08:07:23.222Z,41.79
2023-05-30T08:09:50.328Z,41.96
2023-05-30T08:12:19.919Z,41.58
2023-05-30T08:14:47.758Z,41.53
2023-05-30T08:17:17.427Z,41.52
2023-05-30T08:19:44.706Z,41.42
2023-05-30T08:22:11.915Z,41.72
2023-05-30T08:24:39.604Z,41.31
2023-05-30T08:27:07.761Z,41.48
2023-05-30T08:29:34.920Z,41.53
2023-05-30T08:32:02.190Z,41.10
2023-05-30T08:34:29.363Z,41.52
2023-05-30T08:36:56.625Z,41.16
2023-05-30T08:39:23.771Z,41.35
2023-05-30T08:41:51.477Z,41.13
2023-05-30T08:44:18.856Z,40.95
2023-05-30T08:46:46.250Z,41.04
2023-05-30T08:49:24.428Z,41.06
2023-05-30T08:51:54.482Z,41.00
2023-05-30T08:54:26.759Z,40.73
2023-05-30T08:57:00.209Z,40.89
2023-05-30T08:59:27.656Z,41.03
2023-05-30T09:01:56.566Z,40.88
2023-05-30T09:04:24.484Z,40.66
2023-05-30T09:06:54.276Z,40.66
2023-05-30T09:09:23.830Z,40.46
2023-05-30T09:11:53.225Z,40.56
2023-05-30T09:14:20.727Z,40.69
2023-05-30T09:16:48.412Z,40.65
2023-05-30T09:19:15.967Z,40.31
2023-05-30T09:21:43.509Z,40.62
2023-05-30T09:24:10.784Z,40.39
2023-05-30T09:26:38.027Z,40.62
2023-05-30T09:29:12.124Z,40.72
2023-05-30T09:31:39.607Z,40.77
2023-05-30T09:34:06.938Z,40.55
2023-05-30T09:36:34.147Z,40.27
2023-05-30T09:39:08.077Z,40.45
2023-05-30T09:41:36.080Z,40.48
2023-05-30T09:44:06.824Z,40.30
2023-05-30T09:46:36.494Z,40.48
2023-05-30T09:49:13.697Z,39.93
2023-05-30T09:51:42.109Z,40.09
2023-05-30T09:54:10.688Z,40.27
2023-05-30T09:56:42.582Z,40.49
2023-05-30T09:59:15.009Z,39.92
2023-05-30T10:01:52.362Z,40.19
2023-05-30T10:04:25.958Z,40.45
2023-05-30T10:06:56.426Z,40.46
2023-05-30T10:09:25.291Z,40.28
2023-05-30T10:11:53.321Z,39.95
2023-05-30T10:14:21.045Z,40.00
2023-05-30T10:16:55.128Z,40.14
2023-05-30T10:20:01.323Z,40.23
2023-05-30T10:22:31.423Z,40.14
2023-05-30T10:25:00.879Z,40.20
2023-05-30T10:27:32.929Z,40.17
2023-05-30T10:30:07.964Z,40.18
2023-05-30T10:32:38.722Z,40.18
2023-05-30T10:35:22.682Z,40.03
2023-05-30T10:37:52.306Z,40.10
2023-05-30T10:40:37.557Z,40.13
2023-05-30T10:43:09.966Z,40.27
2023-05-30T10:46:04.545Z,39.88
2023-05-30T10:48:51.713Z,39.93
2023-05-30T10:51:19.186Z,40.06
2023-05-30T10:53:47.816Z,39.99
2023-05-30T10:56:41.646Z,40.04
2023-05-30T10:59:19.623Z,40.23
2023-05-30T11:02:07.001Z,40.13
2023-05-30T11:04:46.558Z,40.18
2023-05-30T11:07:15.494Z,39.97
2023-05-30T11:09:43.527Z,40.40
2023-05-30T11:12:25.171Z,40.27
2023-05-30T11:14:56.845Z,39.78
2023-05-30T11:17:36.477Z,40.07
2023-05-30T11:20:19.024Z,39.97
2023-05-30T11:23:04.421Z,39.87
2023-05-30T11:25:34.568Z,39.88
2023-05-30T11:28:04.956Z,39.78
2023-05-30T11:30:34.398Z,39.87
2023-05-30T11:33:01.618Z,40.15
2023-05-30T11:35:29.428Z,40.09
2023-05-30T11:37:58.038Z,40.37
2023-05-30T11:40:25.426Z,39.65
2023-05-30T11:42:53.981Z,39.59
2023-05-30T11:45:25.938Z,39.58
2023-05-30T11:47:53.125Z,39.95
2023-05-30T11:50:21.637Z,39.67
2023-05-30T11:52:48.791Z,39.80
2023-05-30T11:55:16.244Z,39.62
2023-05-30T11:57:43.433Z,39.65
2023-05-30T12:00:13.522Z,39.50
2023-05-30T12:02:42.071Z,39.69
2023-05-30T12:05:09.844Z,39.58
2023-05-30T12:07:36.947Z,39.62
2023-05-30T12:10:04.377Z,39.55
2023-05-30T12:12:32.615Z,39.68
2023-05-30T12:15:05.130Z,39.20
2023-05-30T12:17:32.919Z,39.20
2023-05-30T12:20:11.189Z,39.32
2023-05-30T12:22:46.330Z,39.24
2023-05-30T12:25:15.040Z,39.56
2023-05-30T12:27:50.373Z,39.30
2023-05-30T12:30:19.721Z,39.19
2023-05-30T12:32:47.040Z,39.16
2023-05-30T12:35:16.254Z,39.25
2023-05-30T12:37:44.001Z,39.33
2023-05-30T12:40:11.360Z,38.95
2023-05-30T12:42:38.518Z,39.14
2023-05-30T12:45:09.017Z,39.14
2023-05-30T12:47:37.080Z,39.06
2023-05-30T12:50:04.506Z,38.88
2023-05-30T12:52:32.904Z,38.82
2023-05-30T12:54:59.982Z,39.01
2023-05-30T12:57:27.326Z,38.94
2023-05-30T12:59:56.212Z,38.84
2023-05-30T13:02:27.813Z,39.00
2023-05-30T13:04:56.214Z,38.83
2023-05-30T13:07:23.478Z,38.45
2023-05-30T13:09:50.724Z,38.68
2023-05-30T13:12:18.766Z,38.35
2023-05-30T13:14:47.333Z,38.12
2023-05-30T13:17:14.680Z,38.36
2023-05-30T13:19:42.013Z,38.41
2023-05-30T13:22:11.670Z,38.28
2023-05-30T13:24:39.660Z,38.37
2023-05-30T13:27:07.684Z,37.94
2023-05-30T13:29:35.595Z,37.97
2023-05-30T13:32:02.942Z,38.29
2023-05-30T13:34:31.418Z,38.13
2023-05-30T13:36:58.581Z,38.14
2023-05-30T13:39:26.624Z,38.02
2023-05-30T13:41:53.714Z,37.98
2023-05-30T13:44:20.941Z,37.84
2023-05-30T13:46:48.011Z,37.75
2023-05-30T13:49:15.196Z,37.83
2023-05-30T13:51:43.579Z,37.53
2023-05-30T13:54:10.686Z,37.47
2023-05-30T13:56:37.793Z,37.35
2023-05-30T13:59:04.875Z,37.67
2023-05-30T14:01:31.962Z,37.58
2023-05-30T14:04:00.808Z,37.38
2023-05-30T14:06:28.284Z,37.79
2023-05-30T14:08:55.707Z,37.41
2023-05-30T14:11:22.888Z,37.27
2023-05-30T14:13:50.537Z,37.36
2023-05-30T14:16:17.920Z,37.36
2023-05-30T14:18:48.684Z,37.17
2023-05-30T14:21:15.974Z,37.27
2023-05-30T14:23:43.379Z,37.15
2023-05-30T14:26:11.253Z,36.92
2023-05-30T14:28:40.485Z,37.01
2023-05-30T14:31:11.090Z,36.68
2023-05-30T14:33:38.277Z,36.53
2023-05-30T14:36:05.625Z,36.16
2023-05-30T14:38:33.298Z,36.08
2023-05-30T14:41:00.476Z,35.96
2023-05-30T14:43:27.778Z,35.72
2023-05-30T14:45:54.882Z,35.58
2023-05-30T14:48:21.946Z,35.87
2023-05-30T14:50:50.743Z,35.56
2023-05-30T14:53:17.807Z,35.39
2023-05-30T14:55:44.841Z,35.36
2023-05-30T14:58:12.239Z,35.33
2023-05-30T15:00:39.875Z,35.22
2023-05-30T15:03:07.435Z,35.00
2023-05-30T15:05:34.633Z,35.18
2023-05-30T15:08:01.886Z,35.10
2023-05-30T15:10:28.909Z,34.93
2023-05-30T15:12:56.073Z,35.03
2023-05-30T15:15:23.562Z,35.06
2023-05-30T15:17:50.679Z,34.81
2023-05-30T15:20:17.834Z,34.88
2023-05-30T15:22:44.918Z,34.71
2023-05-30T15:25:11.836Z,34.84
2023-05-30T15:27:38.842Z,34.76
2023-05-30T15:30:07.019Z,34.50
2023-05-30T15:32:34.075Z,34.43
2023-05-30T15:35:01.466Z,34.05
2023-05-30T15:37:28.556Z,34.25
2023-05-30T15:39:56.018Z,34.15
2023-05-30T15:42:23.899Z,34.03
2023-05-30T15:44:51.174Z,33.67
2023-05-30T15:47:18.276Z,33.40
2023-05-30T15:49:45.765Z,33.57
2023-05-30T15:52:13.288Z,33.41
2023-05-30T15:54:40.328Z,33.58
2023-05-30T15:57:09.532Z,33.36
2023-05-30T15:59:36.883Z,33.14
2023-05-30T16:02:05.371Z,33.31
2023-05-30T16:04:32.816Z,33.17
2023-05-30T16:06:59.877Z,33.05
2023-05-30T16:09:27.036Z,32.81
2023-05-30T16:11:54.254Z,32.78
2023-05-30T16:14:23.224Z,32.72
2023-05-30T16:16:50.384Z,32.44
2023-05-30T16:19:17.717Z,32.46
2023-05-30T16:21:45.252Z,32.60
2023-05-30T16:24:12.566Z,32.41
2023-05-30T16:26:39.834Z,32.58
2023-05-30T16:29:07.277Z,32.29
2023-05-30T16:31:34.390Z,32.34
2023-05-30T16:34:01.820Z,32.12
2023-05-30T16:36:29.603Z,32.11
2023-05-30T16:38:56.644Z,32.07
2023-05-30T16:41:24.581Z,31.71
2023-05-30T16:43:52.455Z,31.88
2023-05-30T16:46:19.501Z,31.93
2023-05-30T16:48:46.845Z,31.98
2023-05-30T16:51:14.042Z,31.56
2023-05-30T16:53:41.890Z,31.53
2023-05-30T16:56:17.041Z,31.47
2023-05-30T16:58:45.552Z,31.42
2023-05-30T17:01:12.974Z,31.69
2023-05-30T17:03:43.365Z,31.36
2023-05-30T17:06:11.779Z,31.36
2023-05-30T17:08:39.768Z,31.51
2023-05-30T17:11:06.975Z,31.70
2023-05-30T17:13:34.424Z,31.59
2023-05-30T17:16:02.022Z,31.45
2023-05-30T17:18:29.046Z,31.40
2023-05-30T17:20:56.380Z,31.14
2023-05-30T17:23:24.164Z,30.80
2023-05-30T17:26:01.931Z,31.16
2023-05-30T17:28:30.487Z,30.88
2023-05-30T17:30:57.798Z,31.11
2023-05-30T17:33:25.662Z,31.24
2023-05-30T17:35:52.857Z,31.04
2023-05-30T17:38:20.133Z,31.08
2023-05-30T17:40:47.595Z,30.89
2023-05-30T17:43:15.141Z,31.13
2023-05-30T17:45:42.436Z,30.89
2023-05-30T17:48:13.354Z,30.91
2023-05-30T17:50:40.713Z,31.12
2023-05-30T17:53:07.759Z,30.92
2023-05-30T17:55:34.872Z,30.64
2023-05-30T17:58:02.291Z,30.87
2023-05-30T18:00:31.009Z,30.77
2023-05-30T18:02:58.702Z,31.02
2023-05-30T18:05:27.837Z,30.84
2023-05-30T18:07:55.283Z,30.71
2023-05-30T18:10:22.470Z,30.82
2023-05-30T18:12:49.563Z,31.13
2023-05-30T18:15:16.714Z,30.89
2023-05-30T18:17:43.761Z,30.88
2023-05-30T18:20:11.802Z,31.04
2023-05-30T18:22:39.390Z,31.11
2023-05-30T18:25:07.143Z,31.06
2023-05-30T18:27:34.680Z,30.90
2023-05-30T18:30:02.223Z,30.89
2023-05-30T18:32:29.498Z,30.79
2023-05-30T18:34:57.746Z,30.96
2023-05-30T18:37:24.755Z,31.17
2023-05-30T18:39:52.231Z,31.20
2023-05-30T18:42:19.856Z,31.31
2023-05-30T18:44:47.970Z,31.25
2023-05-30T18:47:16.120Z,31.41
2023-05-30T18:49:45.780Z,31.37
2023-05-30T18:52:12.975Z,31.55
2023-05-30T18:54:40.523Z,31.27
2023-05-30T18:57:08.817Z,31.48
2023-05-30T18:59:39.005Z,31.48
2023-05-30T19:02:06.977Z,31.45
2023-05-30T19:04:35.339Z,31.41
2023-05-30T19:07:06.052Z,31.43
2023-05-30T19:09:33.519Z,31.66
2023-05-30T19:12:00.700Z,31.74
2023-05-30T19:14:27.868Z,31.45
2023-05-30T19:16:55.161Z,31.50
2023-05-30T19:19:22.272Z,31.59
2023-05-30T19:21:49.247Z,31.70
2023-05-30T19:24:16.254Z,31.70
2023-05-30T19:26:43.343Z,31.77
2023-05-30T19:29:10.318Z,31.55
2023-05-30T19:31:37.440Z,31.70
2023-05-30T19:34:04.609Z,31.77
2023-05-30T19:36:31.544Z,31.83
2023-05-30T19:38:58.636Z,31.67
2023-05-30T19:41:26.828Z,31.80
2023-05-30T19:43:53.978Z,31.72
2023-05-30T19:46:21.115Z,31.80
2023-05-30T19:48:48.137Z,31.96
2023-05-30T19:51:16.259Z,31.96
2023-05-30T19:53:43.344Z,31.81
2023-05-30T19:56:10.405Z,31.89
2023-05-30T19:58:37.467Z,32.01
2023-05-30T20:01:05.271Z,32.18
2023-05-30T20:03:32.689Z,32.01
2023-05-30T20:05:59.908Z,31.85
2023-05-30T20:08:27.230Z,31.96
2023-05-30T20:10:54.325Z,31.90
2023-05-30T20:13:21.462Z,31.85
2023-05-30T20:15:48.517Z,31.77
2023-05-30T20:18:15.696Z,31.74
2023-05-30T20:20:43.068Z,31.86
2023-05-30T20:23:10.244Z,31.73
2023-05-30T20:25:37.433Z,32.05
2023-05-30T20:28:05.551Z,31.96
2023-05-30T20:30:32.713Z,32.11
2023-05-30T20:33:01.159Z,31.87
2023-05-30T20:35:28.484Z,32.09
2023-05-30T20:37:55.522Z,31.88
2023-05-30T20:40:22.830Z,31.61
2023-05-30T20:42:50.769Z,32.07
2023-05-30T20:45:17.881Z,32.13
2023-05-30T20:47:45.110Z,32.36
2023-05-30T20:50:12.307Z,32.10
2023-05-30T20:52:39.442Z,32.06
2023-05-30T20:55:07.075Z,31.92
2023-05-30T20:57:34.176Z,31.97
2023-05-30T21:00:01.328Z,32.22
2023-05-30T21:02:28.364Z,32.27
2023-05-30T21:04:55.649Z,31.94
2023-05-30T21:07:22.664Z,32.30
2023-05-30T21:09:49.732Z,32.14
2023-05-30T21:12:16.766Z,32.24
2023-05-30T21:14:43.834Z,32.15
2023-05-30T21:17:11.644Z,32.34
2023-05-30T21:19:39.021Z,32.33
2023-05-30T21:22:06.292Z,32.42
2023-05-30T21:24:34.238Z,32.19
2023-05-30T21:27:02.848Z,32.14
2023-05-30T21:29:31.315Z,32.44
2023-05-30T21:31:58.485Z,32.47
2023-05-30T21:34:25.597Z,32.38
2023-05-30T21:36:52.802Z,32.59
2023-05-30T21:39:19.984Z,32.53
2023-05-30T21:41:46.976Z,32.65
2023-05-30T21:44:14.295Z,32.49
2023-05-30T21:46:41.289Z,32.23
2023-05-30T21:49:08.359Z,32.82
2023-05-30T21:51:36.300Z,32.49
2023-05-30T21:54:04.138Z,32.38
2023-05-30T21:56:31.545Z,32.37
2023-05-30T21:58:59.898Z,32.35
2023-05-30T22:01:27.511Z,32.85
2023-05-30T22:03:54.801Z,32.63
2023-05-30T22:06:21.912Z,32.69
2023-05-30T22:08:52.045Z,32.61
2023-05-30T22:11:19.348Z,32.81
2023-05-30T22:13:46.446Z,32.84
2023-05-30T22:16:13.639Z,32.72
2023-05-30T22:18:40.644Z,32.55
2023-05-30T22:21:07.703Z,32.56
2023-05-30T22:23:34.727Z,33.14
2023-05-30T22:26:01.976Z,32.90
2023-05-30T22:28:29.306Z,33.18
2023-05-30T22:30:56.261Z,32.96
2023-05-30T22:33:23.285Z,33.15
2023-05-30T22:35:50.569Z,33.17
2023-05-30T22:38:17.732Z,33.28
2023-05-30T22:40:44.789Z,32.87
2023-05-30T22:43:11.804Z,32.93
2023-05-30T22:45:38.977Z,33.23
2023-05-30T22:48:06.167Z,33.17
2023-05-30T22:50:34.309Z,32.93
2023-05-30T22:53:01.743Z,33.33
2023-05-30T22:55:28.892Z,33.37
2023-05-30T22:57:56.338Z,33.09
2023-05-30T23:00:23.426Z,32.97
2023-05-30T23:02:50.841Z,33.03
2023-05-30T23:05:20.578Z,33.30
2023-05-30T23:07:48.975Z,33.37
2023-05-30T23:10:20.516Z,33.38
2023-05-30T23:12:48.394Z,33.36
2023-05-30T23:15:16.314Z,33.43
2023-05-30T23:17:43.456Z,33.02
2023-05-30T23:20:12.454Z,33.54
2023-05-30T23:22:40.063Z,33.41
2023-05-30T23:25:07.440Z,33.11
2023-05-30T23:27:34.517Z,33.17
2023-05-30T23:30:01.892Z,33.16
2023-05-30T23:32:28.879Z,33.29
2023-05-30T23:34:55.952Z,33.01
2023-05-30T23:37:22.883Z,33.02
2023-05-30T23:39:50.052Z,33.57
2023-05-30T23:42:17.093Z,33.08
2023-05-30T23:44:44.117Z,33.53
2023-05-30T23:47:11.154Z,33.54
2023-05-30T23:49:38.241Z,33.56
2023-05-30T23:52:05.701Z,33.10
2023-05-30T23:54:32.662Z,33.17
2023-05-30T23:56:59.753Z,33.46
2023-05-30T23:59:26.803Z,33.25
